Terminal Aerodrome Forecast
Issued by NWS Duluth, MN

Home | Current Version | Previous Version | Text Only | Print | Product List | Glossary On
Versions: 1 2 3 4 5 6 7 8 9 10 11 12 13 14 15 16 17 18 19 20 21 22 23 24 25 26 27 28
303
FTUS43 KDLH 062220 AAC
TAFINL
TAF AMD
KINL 062220Z 0622/0718 14007KT 3/4SM -SN BKN026 OVC035
     FM070000 15008KT 2SM -SN OVC010
      TEMPO 0700/0702 3/4SM -SN OVC007
     FM070500 19007KT P6SM -SN OVC010
     FM070900 22005KT 2SM -SN OVC007=

USA.gov is the U.S. government's official web portal to all federal, state and local government web resources and services.